createdAt,value
2018-07-28T00:03:29.881Z,6.10
2018-07-28T00:08:34.608Z,6.17
2018-07-28T00:13:39.536Z,6.30
2018-07-28T00:18:44.287Z,6.30
2018-07-28T00:23:49.085Z,6.30
2018-07-28T00:28:53.707Z,6.60
2018-07-28T00:33:58.653Z,6.70
2018-07-28T00:39:03.458Z,6.27
2018-07-28T00:44:08.133Z,6.13
2018-07-28T00:49:13.005Z,6.17
2018-07-28T00:54:17.754Z,7.00
2018-07-28T00:59:22.379Z,7.03
2018-07-28T01:04:27.123Z,6.33
2018-07-28T01:09:31.759Z,6.33
2018-07-28T01:14:36.402Z,7.23
2018-07-28T01:19:41.113Z,6.63
2018-07-28T01:24:45.828Z,7.67
2018-07-28T01:29:50.550Z,8.00
2018-07-28T01:34:55.253Z,7.27
2018-07-28T01:39:59.895Z,6.93
2018-07-28T01:45:05.506Z,7.47
2018-07-28T01:50:10.904Z,7.17
2018-07-28T01:55:15.547Z,6.93
2018-07-28T02:00:20.272Z,7.90
2018-07-28T02:05:25.032Z,7.77
2018-07-28T02:10:29.775Z,7.63
2018-07-28T02:15:34.656Z,7.47
2018-07-28T02:20:39.564Z,7.40
2018-07-28T02:25:44.262Z,7.73
2018-07-28T02:30:49.227Z,7.37
2018-07-28T02:35:53.911Z,8.17
2018-07-28T02:40:58.624Z,7.93
2018-07-28T02:46:03.440Z,7.70
2018-07-28T02:51:08.287Z,7.93
2018-07-28T02:56:14.169Z,8.53
2018-07-28T03:01:18.837Z,8.00
2018-07-28T03:06:23.644Z,8.07
2018-07-28T03:11:28.525Z,8.10
2018-07-28T03:16:33.385Z,8.30
2018-07-28T03:21:38.038Z,8.23
2018-07-28T03:26:42.689Z,8.00
2018-07-28T03:31:47.052Z,7.50
2018-07-28T03:36:51.855Z,8.70
2018-07-28T03:41:56.714Z,8.40
2018-07-28T03:47:01.408Z,8.73
2018-07-28T03:52:06.122Z,8.97
2018-07-28T03:57:10.803Z,8.43
2018-07-28T04:02:15.607Z,8.40
2018-07-28T04:07:20.275Z,8.53
2018-07-28T04:12:25.049Z,8.40
2018-07-28T04:17:29.934Z,7.70
2018-07-28T04:22:34.571Z,7.73
2018-07-28T04:27:39.244Z,8.30
2018-07-28T04:32:44.023Z,7.50
2018-07-28T04:37:48.699Z,7.73
2018-07-28T04:42:53.554Z,7.70
2018-07-28T04:47:57.958Z,7.70
2018-07-28T04:53:02.665Z,7.77
2018-07-28T04:58:07.532Z,7.47
2018-07-28T05:03:12.203Z,7.60
2018-07-28T05:08:16.825Z,6.90
2018-07-28T05:13:21.593Z,7.83
2018-07-28T05:18:26.235Z,7.90
2018-07-28T05:23:30.992Z,8.13
2018-07-28T05:28:35.792Z,8.07
2018-07-28T05:33:40.634Z,7.60
2018-07-28T05:38:45.288Z,8.23
2018-07-28T05:43:50.080Z,8.37
2018-07-28T05:48:55.278Z,8.03
2018-07-28T05:53:59.961Z,8.30
2018-07-28T05:59:04.710Z,7.63
2018-07-28T06:04:09.522Z,8.47
2018-07-28T06:09:14.315Z,8.40
2018-07-28T06:14:19.030Z,8.03
2018-07-28T06:19:23.844Z,8.53
2018-07-28T06:24:28.542Z,9.10
2018-07-28T06:29:33.245Z,8.37
2018-07-28T06:34:38.104Z,7.13
2018-07-28T06:39:42.784Z,7.10
2018-07-28T06:44:47.492Z,6.27
2018-07-28T06:49:52.714Z,6.83
2018-07-28T06:54:57.363Z,6.77
2018-07-28T07:00:02.292Z,6.50
2018-07-28T07:05:08.847Z,7.03
2018-07-28T07:10:13.610Z,7.30
2018-07-28T07:15:18.324Z,6.27
2018-07-28T07:20:23.083Z,6.60
2018-07-28T07:25:27.948Z,6.87
2018-07-28T07:30:32.767Z,6.80
2018-07-28T07:35:37.598Z,6.33
2018-07-28T07:40:42.460Z,6.47
2018-07-28T07:45:47.399Z,7.00
2018-07-28T07:50:52.132Z,6.40
2018-07-28T07:55:56.850Z,6.37
2018-07-28T08:01:01.577Z,6.67
2018-07-28T08:06:06.006Z,6.40
2018-07-28T08:11:10.964Z,6.53
2018-07-28T08:16:15.710Z,7.20
2018-07-28T08:21:20.121Z,6.40
2018-07-28T08:26:24.934Z,6.10
2018-07-28T08:31:29.653Z,6.23
2018-07-28T08:36:34.397Z,6.27
2018-07-28T08:41:39.206Z,6.00
2018-07-28T08:46:43.954Z,5.67
2018-07-28T08:51:48.737Z,5.67
2018-07-28T08:56:53.509Z,5.90
2018-07-28T09:01:58.326Z,6.10
2018-07-28T09:07:03.022Z,6.07
2018-07-28T09:12:07.939Z,5.70
2018-07-28T09:17:12.622Z,5.60
2018-07-28T09:22:17.362Z,5.03
2018-07-28T09:27:22.276Z,5.70
2018-07-28T09:32:26.970Z,5.30
2018-07-28T09:37:31.884Z,5.00
2018-07-28T09:42:36.649Z,5.23
2018-07-28T09:47:41.333Z,5.43
2018-07-28T09:52:46.048Z,5.47
2018-07-28T09:57:50.817Z,4.60
2018-07-28T10:02:55.701Z,5.77
2018-07-28T10:08:00.686Z,4.70
2018-07-28T10:13:05.369Z,4.50
2018-07-28T10:18:10.043Z,3.70
2018-07-28T10:23:15.557Z,4.20
2018-07-28T10:28:20.286Z,4.03
2018-07-28T10:33:24.923Z,3.90
2018-07-28T10:38:29.699Z,3.77
2018-07-28T10:43:34.609Z,4.30
2018-07-28T10:48:39.386Z,4.10
2018-07-28T10:53:44.233Z,4.10
2018-07-28T10:58:49.172Z,4.30
2018-07-28T11:03:54.182Z,3.97
2018-07-28T11:08:58.876Z,3.93
2018-07-28T11:14:03.805Z,4.03
2018-07-28T11:19:08.694Z,3.90
2018-07-28T11:24:13.387Z,3.97
2018-07-28T11:29:18.104Z,3.93
2018-07-28T11:34:39.796Z,4.20
2018-07-28T11:40:01.515Z,5.20
2018-07-28T11:45:16.874Z,4.43
2018-07-28T11:50:21.553Z,3.90
2018-07-28T11:55:26.386Z,4.30
2018-07-28T12:00:31.243Z,4.43
2018-07-28T12:05:36.155Z,3.60
2018-07-28T12:10:40.833Z,2.70
2018-07-28T12:15:45.568Z,3.47
2018-07-28T12:20:50.283Z,2.90
2018-07-28T12:25:55.004Z,3.47
2018-07-28T12:30:59.812Z,3.07
2018-07-28T12:36:05.114Z,3.73
2018-07-28T12:41:10.041Z,3.40
2018-07-28T12:46:14.668Z,3.50
2018-07-28T12:51:19.373Z,3.70
2018-07-28T12:56:24.205Z,3.63
2018-07-28T13:01:29.714Z,3.37
2018-07-28T13:06:34.519Z,3.43
2018-07-28T13:11:39.472Z,3.30
2018-07-28T13:16:44.318Z,3.70
2018-07-28T13:21:49.511Z,3.80
2018-07-28T13:26:54.393Z,2.93
2018-07-28T13:31:58.824Z,3.20
2018-07-28T13:37:04.278Z,3.00
2018-07-28T13:42:09.167Z,3.00
2018-07-28T13:47:14.153Z,2.70
2018-07-28T13:52:20.185Z,3.10
2018-07-28T13:57:25.808Z,3.00
2018-07-28T14:02:30.711Z,3.03
2018-07-28T14:07:35.624Z,3.30
2018-07-28T14:12:41.020Z,3.10
2018-07-28T14:17:45.937Z,3.10
2018-07-28T14:22:51.019Z,2.80
2018-07-28T14:27:55.903Z,3.27
2018-07-28T14:33:01.788Z,3.00
2018-07-28T14:38:07.449Z,3.20
2018-07-28T14:43:12.305Z,3.33
2018-07-28T14:48:17.377Z,3.43
2018-07-28T14:53:22.833Z,3.30
2018-07-28T14:58:27.284Z,3.10
2018-07-28T15:03:32.080Z,3.00
2018-07-28T15:08:37.004Z,3.10
2018-07-28T15:13:42.879Z,3.37
2018-07-28T15:18:47.810Z,3.43
2018-07-28T15:23:52.591Z,3.20
2018-07-28T15:28:57.479Z,3.40
2018-07-28T15:34:02.282Z,3.30
2018-07-28T15:39:10.069Z,3.37
2018-07-28T15:44:14.846Z,6.33
2018-07-28T15:49:19.783Z,4.60
2018-07-28T15:54:24.483Z,4.17
2018-07-28T15:59:29.947Z,4.70
2018-07-28T16:04:35.164Z,4.50
2018-07-28T16:09:40.039Z,5.43
2018-07-28T16:14:44.912Z,5.10
2018-07-28T16:19:49.774Z,6.20
2018-07-28T16:24:54.508Z,6.00
2018-07-28T16:29:59.399Z,6.13
2018-07-28T16:35:04.337Z,10.70
2018-07-28T16:40:09.275Z,6.13
2018-07-28T16:45:13.965Z,5.57
2018-07-28T16:50:18.806Z,6.23
2018-07-28T16:55:29.584Z,5.47
2018-07-28T17:00:34.283Z,6.43
2018-07-28T17:05:38.970Z,6.57
2018-07-28T17:10:43.915Z,9.20
2018-07-28T17:15:48.811Z,5.87
2018-07-28T17:20:53.729Z,5.60
2018-07-28T17:25:58.519Z,6.30
2018-07-28T17:31:03.310Z,6.37
2018-07-28T17:36:08.104Z,6.37
2018-07-28T17:41:13.009Z,6.90
2018-07-28T17:46:17.652Z,6.43
2018-07-28T17:51:22.404Z,7.63
2018-07-28T17:56:27.521Z,6.50
2018-07-28T18:01:32.319Z,7.10
2018-07-28T18:06:37.133Z,6.13
2018-07-28T18:11:41.867Z,6.27
2018-07-28T18:16:46.627Z,5.90
2018-07-28T18:21:51.343Z,6.23
2018-07-28T18:26:56.023Z,6.47
2018-07-28T18:32:00.810Z,6.83
2018-07-28T18:37:05.766Z,6.77
2018-07-28T18:42:10.677Z,5.90
2018-07-28T18:47:15.584Z,6.23
2018-07-28T18:52:20.365Z,6.03
2018-07-28T18:57:25.091Z,7.33
2018-07-28T19:02:30.575Z,7.53
2018-07-28T19:07:35.353Z,6.93
2018-07-28T19:12:45.275Z,6.80
2018-07-28T19:17:54.963Z,6.53
2018-07-28T19:23:04.777Z,7.00
2018-07-28T19:28:14.740Z,7.70
2018-07-28T19:33:20.065Z,7.57
2018-07-28T19:38:24.951Z,7.73
2018-07-28T19:43:29.761Z,7.90
2018-07-28T19:48:34.556Z,7.53
2018-07-28T19:53:39.481Z,7.70
2018-07-28T19:58:44.265Z,7.67
2018-07-28T20:03:49.129Z,7.77
2018-07-28T20:08:54.149Z,8.17
2018-07-28T20:13:59.085Z,8.47
2018-07-28T20:19:03.971Z,9.03
2018-07-28T20:24:08.827Z,9.37
2018-07-28T20:29:13.802Z,8.87
2018-07-28T20:34:18.630Z,9.47
2018-07-28T20:39:23.766Z,9.00
2018-07-28T20:44:28.553Z,9.17
2018-07-28T20:49:33.298Z,8.80
2018-07-28T20:54:38.260Z,8.40
2018-07-28T20:59:43.239Z,8.73
2018-07-28T21:04:48.138Z,8.27
2018-07-28T21:09:53.058Z,8.20
2018-07-28T21:14:57.999Z,9.03
2018-07-28T21:20:02.892Z,10.03
2018-07-28T21:25:07.878Z,10.80
2018-07-28T21:30:12.673Z,11.00
2018-07-28T21:35:17.579Z,11.70
2018-07-28T21:40:22.895Z,13.23
2018-07-28T21:45:27.768Z,13.70
2018-07-28T21:50:32.624Z,13.53
2018-07-28T21:55:37.499Z,13.10
2018-07-28T22:00:47.264Z,14.10
2018-07-28T22:05:51.977Z,13.10
2018-07-28T22:10:57.019Z,13.10
2018-07-28T22:16:01.751Z,15.33
2018-07-28T22:21:06.705Z,15.20
2018-07-28T22:26:11.431Z,14.77
2018-07-28T22:31:16.148Z,13.63
2018-07-28T22:36:20.922Z,13.87
2018-07-28T22:41:25.734Z,13.60
2018-07-28T22:46:31.871Z,15.07
2018-07-28T22:51:36.603Z,17.00
2018-07-28T22:56:41.391Z,15.70
2018-07-28T23:01:46.140Z,16.40
2018-07-28T23:06:51.211Z,18.07
2018-07-28T23:11:56.129Z,17.67
2018-07-28T23:17:00.608Z,17.67
2018-07-28T23:22:05.370Z,17.97
2018-07-28T23:27:10.090Z,18.83
2018-07-28T23:32:14.891Z,15.67
2018-07-28T23:37:19.668Z,14.80
2018-07-28T23:42:24.033Z,13.73
2018-07-28T23:47:28.924Z,10.80
2018-07-28T23:52:33.619Z,13.80
2018-07-28T23:57:38.549Z,16.27
